Time;durP1;ratioP1;P1;durP2;ratioP2;P2;SDS_P1;SDS_P2;PMS_P1;PMS_P2;Temp;Humidity;BMP_temperature;BMP_pressure;BME280_temperature;BME280_humidity;BME280_pressure;Samples;Min_cycle;Max_cycle;Signal;HPM_P1;HPM_P2
2022/06/21 00:01:17;;;;;;;7.35;3.70;;;13.40;99.90;;;;;;5085103;28;20039;-63
2022/06/21 00:03:43;;;;;;;6.88;3.50;;;13.40;99.90;;;;;;5073688;28;20151;-64
2022/06/21 00:06:12;;;;;;;6.30;3.45;;;13.40;99.90;;;;;;5076387;28;20090;-63
2022/06/21 00:08:38;;;;;;;6.25;3.40;;;13.20;99.90;;;;;;5078371;28;20020;-64
2022/06/21 00:11:16;;;;;;;6.15;3.60;;;13.10;99.90;;;;;;5076371;28;20028;-62
2022/06/21 00:13:42;;;;;;;4.57;3.20;;;12.90;99.90;;;;;;5079338;28;20041;-63
2022/06/21 00:16:12;;;;;;;6.85;3.58;;;12.90;99.90;;;;;;5078571;28;20344;-63
2022/06/21 00:18:39;;;;;;;5.10;3.45;;;13.00;99.90;;;;;;5080943;28;20052;-64
2022/06/21 00:21:10;;;;;;;5.00;3.50;;;13.00;99.90;;;;;;5069379;28;20032;-63
2022/06/21 00:23:36;;;;;;;6.05;3.47;;;13.10;99.90;;;;;;5082840;28;20039;-62
2022/06/21 00:26:02;;;;;;;7.80;3.83;;;13.20;99.90;;;;;;5083352;28;20071;-65
2022/06/21 00:28:27;;;;;;;6.22;3.70;;;13.40;99.90;;;;;;5080379;28;20077;-63
2022/06/21 00:30:54;;;;;;;6.53;3.63;;;13.30;99.90;;;;;;5074977;28;20032;-63
2022/06/21 00:33:23;;;;;;;6.03;3.53;;;13.10;99.90;;;;;;5080647;28;20024;-64
2022/06/21 00:35:51;;;;;;;4.97;3.50;;;13.00;99.90;;;;;;5078837;28;20032;-63
2022/06/21 00:38:29;;;;;;;5.90;3.35;;;13.00;99.90;;;;;;5078943;28;20056;-63
2022/06/21 00:41:01;;;;;;;6.60;3.70;;;12.90;99.90;;;;;;5079652;28;20024;-64
2022/06/21 00:43:32;;;;;;;5.55;3.47;;;13.00;99.90;;;;;;5077700;28;20032;-64
2022/06/21 00:45:59;;;;;;;5.57;3.38;;;13.00;99.90;;;;;;5083198;28;20025;-63
2022/06/21 00:48:39;;;;;;;6.72;3.88;;;12.90;99.90;;;;;;5078362;28;20107;-64
2022/06/21 00:51:31;;;;;;;10.48;3.70;;;12.80;99.90;;;;;;5074400;28;20077;-65
2022/06/21 01:10:51;;;;;;;6.50;3.40;;;12.50;99.90;;;;;;5079523;28;20039;-64
2022/06/21 01:13:20;;;;;;;5.43;3.55;;;12.60;99.90;;;;;;5076717;28;20051;-64
2022/06/21 01:15:49;;;;;;;7.45;3.70;;;12.70;99.90;;;;;;5085044;28;20172;-64
2022/06/21 01:18:17;;;;;;;7.20;3.92;;;12.50;99.90;;;;;;5082611;28;20059;-64
2022/06/21 01:20:47;;;;;;;6.53;3.80;;;12.40;99.90;;;;;;5077771;28;20040;-63
2022/06/21 01:23:29;;;;;;;9.73;3.90;;;12.40;99.90;;;;;;5075611;28;20040;-65
2022/06/21 01:26:10;;;;;;;7.00;3.90;;;12.30;99.90;;;;;;5073561;28;20036;-64
2022/06/21 01:28:37;;;;;;;6.10;3.78;;;12.30;99.90;;;;;;5085156;28;20051;-64
2022/06/21 01:31:02;;;;;;;11.57;3.97;;;12.40;99.90;;;;;;5084176;28;20193;-64
2022/06/21 01:33:37;;;;;;;6.85;4.20;;;12.40;99.90;;;;;;5080098;28;20543;-62
2022/06/21 01:36:13;;;;;;;6.75;4.20;;;12.30;99.90;;;;;;5090307;28;20074;-64
2022/06/21 01:38:46;;;;;;;6.40;4.18;;;12.30;99.90;;;;;;5073433;28;20012;-63
2022/06/21 01:41:18;;;;;;;6.70;4.10;;;12.20;99.90;;;;;;5082527;28;20028;-62
2022/06/21 01:43:47;;;;;;;8.65;4.13;;;12.20;99.90;;;;;;5072171;28;20567;-63
2022/06/21 01:46:18;;;;;;;5.43;4.10;;;12.20;99.90;;;;;;5082393;28;20032;-64
2022/06/21 01:48:52;;;;;;;5.05;3.70;;;12.20;99.90;;;;;;5070569;28;20024;-63
2022/06/21 01:51:41;;;;;;;8.50;4.03;;;12.00;99.90;;;;;;5072116;28;20035;-63
2022/06/21 01:54:11;;;;;;;6.53;3.95;;;11.80;99.90;;;;;;5078596;28;21452;-64
2022/06/21 01:56:39;;;;;;;6.57;3.90;;;11.90;99.90;;;;;;5074902;28;20453;-65
2022/06/21 01:59:21;;;;;;;8.45;4.63;;;12.00;99.90;;;;;;5085781;28;20040;-64
2022/06/21 02:01:54;;;;;;;5.30;3.57;;;12.00;99.90;;;;;;5082501;28;20149;-65
2022/06/21 02:04:26;;;;;;;6.43;3.70;;;12.10;99.90;;;;;;5080544;28;20023;-64
2022/06/21 02:06:54;;;;;;;5.78;4.10;;;11.90;99.90;;;;;;5077285;28;20039;-64
2022/06/21 02:09:26;;;;;;;8.35;4.15;;;12.00;99.90;;;;;;5085011;28;20040;-64
2022/06/21 02:12:16;;;;;;;5.47;3.92;;;12.00;99.90;;;;;;5077715;28;20025;-63
2022/06/21 02:14:47;;;;;;;6.50;4.25;;;11.90;99.90;;;;;;5084951;28;20527;-63
2022/06/21 02:17:23;;;;;;;6.18;4.20;;;12.00;99.90;;;;;;5080337;28;20030;-64
2022/06/21 02:20:04;;;;;;;8.65;3.88;;;12.10;99.90;;;;;;5090126;28;20074;-64
2022/06/21 02:22:31;;;;;;;5.88;4.10;;;11.80;99.90;;;;;;5079151;28;20036;-63
2022/06/21 02:24:57;;;;;;;8.85;4.18;;;11.80;99.90;;;;;;5077633;28;20040;-63
2022/06/21 02:27:27;;;;;;;7.00;4.50;;;11.70;99.90;;;;;;5078293;28;20032;-63
2022/06/21 02:29:56;;;;;;;7.13;4.40;;;11.90;99.90;;;;;;5072118;28;20040;-63
2022/06/21 02:32:24;;;;;;;5.95;4.15;;;11.80;99.90;;;;;;5080212;28;20024;-63
2022/06/21 02:34:55;;;;;;;6.93;4.32;;;11.80;99.90;;;;;;5079218;28;20028;-64
2022/06/21 02:37:22;;;;;;;8.88;4.80;;;11.70;99.90;;;;;;5077033;28;20023;-63
2022/06/21 02:39:48;;;;;;;7.63;4.28;;;11.60;99.90;;;;;;5074625;28;20073;-63
2022/06/21 02:42:22;;;;;;;7.43;4.53;;;11.60;99.90;;;;;;5081762;28;20156;-63
2022/06/21 02:44:56;;;;;;;7.95;4.53;;;11.70;99.90;;;;;;5077189;28;20025;-65
2022/06/21 02:47:29;;;;;;;8.38;4.88;;;11.80;99.90;;;;;;5076789;28;20020;-64
2022/06/21 02:50:06;;;;;;;11.75;5.20;;;11.90;99.90;;;;;;5081199;28;20043;-64
2022/06/21 02:52:37;;;;;;;11.00;5.13;;;11.90;99.90;;;;;;5078118;28;20036;-63
2022/06/21 02:55:14;;;;;;;9.65;4.85;;;11.90;99.90;;;;;;5082188;28;20086;-64
2022/06/21 02:57:56;;;;;;;11.35;5.00;;;11.80;99.90;;;;;;5078359;28;20412;-63
2022/06/21 03:00:23;;;;;;;7.93;4.80;;;11.70;99.90;;;;;;5075138;28;20033;-62
2022/06/21 03:02:49;;;;;;;10.43;5.15;;;11.80;99.90;;;;;;5079571;28;20024;-63
2022/06/21 03:05:19;;;;;;;10.85;4.80;;;11.70;99.90;;;;;;5078277;28;20324;-63
2022/06/21 03:07:55;;;;;;;11.75;5.55;;;11.50;99.90;;;;;;5077798;28;20058;-62
2022/06/21 03:10:28;;;;;;;12.57;5.70;;;11.80;99.90;;;;;;5092666;27;20030;-63
2022/06/21 03:13:11;;;;;;;11.70;5.25;;;11.80;99.90;;;;;;5084003;28;20229;-63
2022/06/21 03:15:38;;;;;;;10.85;5.03;;;11.90;99.90;;;;;;5079949;28;20059;-63
2022/06/21 03:18:15;;;;;;;7.40;4.55;;;11.90;99.90;;;;;;5083610;28;20402;-64
2022/06/21 03:20:41;;;;;;;8.35;4.93;;;12.10;99.90;;;;;;5074693;28;20077;-63
2022/06/21 03:23:11;;;;;;;10.10;4.93;;;12.00;99.90;;;;;;5081200;28;20508;-62
2022/06/21 03:25:51;;;;;;;10.85;4.82;;;12.10;99.90;;;;;;5072098;28;20497;-64
2022/06/21 03:28:27;;;;;;;8.02;4.63;;;12.00;99.90;;;;;;5079474;28;20020;-62
2022/06/21 03:31:07;;;;;;;10.50;5.00;;;12.00;99.90;;;;;;5077960;28;20728;-64
2022/06/21 03:33:36;;;;;;;11.32;4.90;;;12.00;99.90;;;;;;5080670;28;20090;-63
2022/06/21 03:36:04;;;;;;;11.40;4.85;;;11.80;99.90;;;;;;5081747;28;20120;-63
2022/06/21 03:38:31;;;;;;;9.75;4.90;;;11.90;99.90;;;;;;5074863;28;20428;-62
2022/06/21 03:43:49;;;;;;;7.07;4.68;;;11.90;99.90;;;;;;5074414;28;20546;-63
2022/06/21 03:46:24;;;;;;;9.13;4.75;;;11.40;99.90;;;;;;5080436;28;20458;-64
2022/06/21 03:48:53;;;;;;;7.93;4.70;;;11.60;99.90;;;;;;5079560;28;20032;-64
2022/06/21 03:51:26;;;;;;;10.48;4.95;;;11.80;99.90;;;;;;5079109;28;20028;-63
2022/06/21 03:53:58;;;;;;;17.38;5.78;;;11.80;99.90;;;;;;5078983;28;20115;-64
2022/06/21 03:56:32;;;;;;;8.18;5.07;;;12.00;99.90;;;;;;5081778;28;20023;-62
2022/06/21 03:59:07;;;;;;;10.27;5.30;;;12.00;99.90;;;;;;5074015;28;20024;-63
2022/06/21 04:01:44;;;;;;;7.68;5.05;;;11.80;99.90;;;;;;5079090;28;20096;-63
2022/06/21 04:04:22;;;;;;;9.60;5.38;;;11.90;99.90;;;;;;5077211;28;20043;-62
2022/06/21 04:07:13;;;;;;;9.50;5.47;;;12.00;99.90;;;;;;5078328;28;20028;-64
2022/06/21 04:09:49;;;;;;;5.82;4.45;;;11.90;99.90;;;;;;5077819;28;20717;-63
2022/06/21 04:12:25;;;;;;;9.82;5.40;;;11.70;99.90;;;;;;5076638;28;20025;-64
2022/06/21 04:15:02;;;;;;;8.82;5.43;;;11.80;99.90;;;;;;5071791;28;20024;-62
2022/06/21 04:17:49;;;;;;;7.45;4.97;;;12.00;99.90;;;;;;5078337;28;20028;-63
2022/06/21 04:21:00;;;;;;;7.63;5.20;;;11.80;99.90;;;;;;5080441;28;20032;-64
2022/06/21 04:23:35;;;;;;;8.57;5.35;;;12.00;99.90;;;;;;5074483;28;20033;-63
2022/06/21 04:26:10;;;;;;;10.93;5.03;;;12.20;99.90;;;;;;5082373;28;20031;-62
2022/06/21 04:28:39;;;;;;;9.13;5.40;;;12.00;99.90;;;;;;5074814;28;20029;-63
2022/06/21 04:31:12;;;;;;;9.35;5.47;;;12.20;99.90;;;;;;5080017;28;20420;-63
2022/06/21 04:33:45;;;;;;;;;;;12.30;99.90;;;;;;5077438;28;20020;-63
2022/06/21 04:36:35;;;;;;;9.68;5.68;;;12.30;99.90;;;;;;5073823;28;19948;-64
2022/06/21 04:39:21;;;;;;;9.93;5.47;;;12.40;99.90;;;;;;5081405;28;20388;-62
2022/06/21 04:41:58;;;;;;;10.63;5.53;;;12.30;99.90;;;;;;5076344;28;20456;-64
2022/06/21 04:44:41;;;;;;;8.73;5.15;;;12.50;99.90;;;;;;5074664;28;20020;-62
2022/06/21 04:47:14;;;;;;;;;;;12.50;99.90;;;;;;5078945;28;20313;-62
2022/06/21 04:49:58;;;;;;;7.82;5.93;;;12.60;99.90;;;;;;5076665;28;19916;-63
2022/06/21 04:52:27;;;;;;;11.18;5.85;;;12.70;99.90;;;;;;5069195;28;20077;-63
2022/06/21 04:54:52;;;;;;;7.47;5.60;;;12.80;99.90;;;;;;5076286;28;20434;-62
2022/06/21 04:57:21;;;;;;;10.50;6.55;;;12.90;99.90;;;;;;5077088;28;20028;-63
2022/06/21 04:59:56;;;;;;;9.13;5.70;;;12.90;99.90;;;;;;5077458;28;20035;-64
2022/06/21 05:02:25;;;;;;;7.50;5.65;;;13.00;99.90;;;;;;5076637;28;20020;-62
2022/06/21 05:05:13;;;;;;;9.10;5.70;;;13.10;99.90;;;;;;5081639;28;20036;-64
2022/06/21 05:07:50;;;;;;;11.30;5.53;;;13.30;99.90;;;;;;5074157;28;20024;-63
2022/06/21 05:10:28;;;;;;;9.00;5.53;;;13.50;99.90;;;;;;5095187;28;20015;-63
2022/06/21 05:12:55;;;;;;;10.40;5.47;;;13.70;99.90;;;;;;5084008;28;20028;-62
2022/06/21 05:15:25;;;;;;;9.73;5.72;;;13.80;99.90;;;;;;5078513;28;20034;-63
2022/06/21 05:18:38;;;;;;;13.75;6.32;;;14.00;99.90;;;;;;5074752;28;20428;-63
2022/06/21 05:21:12;;;;;;;9.43;5.60;;;14.30;99.90;;;;;;5046562;28;20489;-62
2022/06/21 05:23:38;;;;;;;10.02;5.50;;;14.30;99.90;;;;;;5070711;28;20582;-63
2022/06/21 05:26:12;;;;;;;12.90;6.30;;;14.30;99.90;;;;;;5079162;28;20117;-63
2022/06/21 05:28:51;;;;;;;11.90;6.10;;;14.70;99.90;;;;;;5084231;28;20040;-64
2022/06/21 05:31:31;;;;;;;16.38;6.60;;;14.70;99.90;;;;;;5079762;28;20025;-62
2022/06/21 05:34:04;;;;;;;16.27;6.53;;;14.80;99.90;;;;;;5079724;28;20025;-64
2022/06/21 05:36:38;;;;;;;13.70;6.15;;;14.90;99.90;;;;;;5086432;28;20023;-63
2022/06/21 05:39:20;;;;;;;16.17;7.63;;;15.10;99.90;;;;;;5077126;28;20051;-63
2022/06/21 05:41:48;;;;;;;20.23;7.95;;;15.10;99.90;;;;;;5081448;28;20161;-64
2022/06/21 05:44:32;;;;;;;21.50;7.70;;;15.30;99.90;;;;;;5088063;28;20687;-64
2022/06/21 05:47:10;;;;;;;21.98;7.63;;;15.30;99.90;;;;;;5086346;28;20479;-63
2022/06/21 05:49:37;;;;;;;14.65;6.30;;;15.50;99.90;;;;;;5076266;28;20021;-65
2022/06/21 05:52:07;;;;;;;17.00;6.75;;;15.70;99.90;;;;;;5088320;28;20044;-63
2022/06/21 05:54:37;;;;;;;7.22;3.60;;;15.80;99.90;;;;;;5073007;28;20484;-63
2022/06/21 05:57:06;;;;;;;9.18;3.53;;;15.80;99.90;;;;;;5087228;28;20641;-63
2022/06/21 05:59:32;;;;;;;9.02;3.30;;;15.70;99.90;;;;;;5077505;28;20069;-63
2022/06/21 06:02:04;;;;;;;8.90;3.40;;;15.90;99.90;;;;;;5088789;28;20110;-63
2022/06/21 06:04:42;;;;;;;10.88;3.80;;;16.00;99.90;;;;;;5087635;28;20032;-64
2022/06/21 06:07:32;;;;;;;12.82;4.55;;;16.10;99.90;;;;;;5080024;28;20036;-63
2022/06/21 06:10:00;;;;;;;10.40;3.83;;;16.30;99.90;;;;;;5086705;28;20480;-64
2022/06/21 06:12:32;;;;;;;9.90;3.70;;;16.40;99.90;;;;;;5082045;28;20212;-63
2022/06/21 06:15:38;;;;;;;7.45;2.97;;;16.50;99.90;;;;;;5083242;28;20032;-63
2022/06/21 06:18:16;;;;;;;7.43;2.13;;;16.60;99.90;;;;;;5052181;28;20144;-65
2022/06/21 06:20:59;;;;;;;7.55;2.45;;;16.80;99.90;;;;;;5091193;27;20102;-64
2022/06/21 06:23:43;;;;;;;5.72;2.10;;;16.80;99.90;;;;;;5076878;28;20030;-64
2022/06/21 06:26:15;;;;;;;11.13;2.30;;;16.90;99.90;;;;;;5075749;28;20016;-64
2022/06/21 06:28:51;;;;;;;5.97;2.15;;;16.80;99.90;;;;;;5076026;28;20468;-63
2022/06/21 06:31:40;;;;;;;7.88;2.05;;;17.00;99.90;;;;;;5076196;28;20028;-64
2022/06/21 06:34:11;;;;;;;6.53;2.67;;;17.10;99.90;;;;;;5075554;28;20682;-63
2022/06/21 06:37:05;;;;;;;7.72;2.63;;;17.10;99.90;;;;;;5068402;28;20688;-65
2022/06/21 06:39:32;;;;;;;;;;;17.00;99.90;;;;;;5080367;28;20024;-64
2022/06/21 06:42:06;;;;;;;7.93;3.20;;;17.20;99.90;;;;;;5080837;28;19912;-64
2022/06/21 06:44:39;;;;;;;8.13;3.05;;;17.10;99.90;;;;;;5077389;28;20111;-63
2022/06/21 06:47:18;;;;;;;10.70;2.85;;;17.10;99.90;;;;;;5082930;28;20085;-64
2022/06/21 06:49:59;;;;;;;8.13;3.10;;;17.30;99.90;;;;;;5072427;28;20044;-65
2022/06/21 06:52:30;;;;;;;11.13;3.50;;;17.60;99.90;;;;;;5080586;28;20063;-63
2022/06/21 06:55:06;;;;;;;9.15;4.13;;;17.60;99.90;;;;;;5082242;28;20043;-63
2022/06/21 06:57:37;;;;;;;15.88;6.68;;;17.70;99.90;;;;;;5073355;28;20032;-67
2022/06/21 07:00:20;;;;;;;11.32;5.30;;;17.80;99.90;;;;;;5075936;28;20013;-65
2022/06/21 07:02:52;;;;;;;11.48;3.42;;;17.60;99.90;;;;;;5082500;28;20028;-64
2022/06/21 07:05:21;;;;;;;9.55;3.45;;;17.60;99.90;;;;;;5085936;28;20767;-64
2022/06/21 07:07:53;;;;;;;7.68;3.10;;;17.70;99.90;;;;;;5077215;28;20029;-64
2022/06/21 07:10:25;;;;;;;8.90;3.50;;;17.80;99.90;;;;;;5078572;28;20020;-64
2022/06/21 07:12:53;;;;;;;9.57;3.20;;;18.00;99.90;;;;;;5082445;28;20052;-64
2022/06/21 07:15:32;;;;;;;6.80;3.35;;;18.10;99.90;;;;;;5076262;28;20047;-64
2022/06/21 07:17:57;;;;;;;13.00;4.20;;;18.00;99.90;;;;;;5080312;28;20020;-63
2022/06/21 07:20:35;;;;;;;9.88;3.72;;;18.30;99.90;;;;;;5078713;28;20020;-64
2022/06/21 07:23:01;;;;;;;9.93;3.40;;;18.30;99.90;;;;;;5073550;28;20052;-65
2022/06/21 07:25:36;;;;;;;6.47;3.30;;;18.10;99.90;;;;;;5082211;28;20058;-64
2022/06/21 07:28:37;;;;;;;8.02;2.95;;;18.40;99.90;;;;;;5077112;28;20035;-64
2022/06/21 07:31:14;;;;;;;9.88;2.92;;;18.70;99.90;;;;;;5075723;28;20044;-64
2022/06/21 07:33:58;;;;;;;7.38;2.97;;;18.80;99.90;;;;;;5092119;28;20050;-64
2022/06/21 07:36:30;;;;;;;11.55;3.08;;;18.90;99.90;;;;;;5070628;28;20099;-64
2022/06/21 07:39:04;;;;;;;6.88;2.70;;;18.60;99.90;;;;;;5086215;28;20100;-63
2022/06/21 07:41:47;;;;;;;4.88;2.50;;;18.10;99.90;;;;;;5075763;28;20498;-63
2022/06/21 07:44:34;;;;;;;9.07;3.67;;;18.40;99.90;;;;;;5080338;28;20390;-64
2022/06/21 07:47:08;;;;;;;12.77;4.15;;;18.60;99.90;;;;;;5080257;28;20109;-64
2022/06/21 07:49:54;;;;;;;8.90;3.13;;;18.80;99.90;;;;;;5077567;28;20484;-64
2022/06/21 07:52:50;;;;;;;8.88;3.63;;;18.60;99.90;;;;;;5088323;28;20020;-64
2022/06/21 07:55:29;;;;;;;7.45;2.97;;;18.90;99.90;;;;;;5049089;28;20040;-64
2022/06/21 07:58:00;;;;;;;8.77;3.25;;;18.70;99.90;;;;;;5082515;28;20542;-64
2022/06/21 08:06:40;;;;;;;5.43;2.67;;;19.00;99.90;;;;;;5075424;28;20387;-65
2022/06/21 08:09:11;;;;;;;8.15;3.33;;;19.50;99.90;;;;;;5077029;28;20126;-63
2022/06/21 08:11:40;;;;;;;7.80;3.20;;;19.20;99.90;;;;;;5088919;28;20008;-64
2022/06/21 08:14:08;;;;;;;7.45;2.88;;;19.30;99.90;;;;;;5075165;28;20120;-65
2022/06/21 08:16:47;;;;;;;8.25;2.80;;;19.60;99.90;;;;;;5080368;28;20721;-65
2022/06/21 08:19:37;;;;;;;7.22;3.05;;;19.80;99.90;;;;;;5093159;28;20201;-64
2022/06/21 08:22:15;;;;;;;6.53;2.92;;;19.80;99.90;;;;;;5082088;28;20748;-64
2022/06/21 08:24:54;;;;;;;7.40;3.08;;;19.70;99.90;;;;;;5077069;28;20113;-63
2022/06/21 08:27:35;;;;;;;9.63;3.50;;;19.90;99.90;;;;;;5085840;28;20028;-64
2022/06/21 08:30:12;;;;;;;7.18;3.58;;;19.80;99.90;;;;;;5083329;28;20062;-63
2022/06/21 08:32:47;;;;;;;9.10;3.55;;;20.10;99.90;;;;;;5078126;28;20107;-65
2022/06/21 08:35:28;;;;;;;9.32;3.60;;;20.20;99.90;;;;;;5075278;28;20094;-66
2022/06/21 08:38:17;;;;;;;11.32;3.80;;;20.10;99.90;;;;;;5079527;28;20036;-64
2022/06/21 08:44:38;;;;;;;9.43;3.00;;;19.00;99.90;;;;;;5079770;28;20579;-64
2022/06/21 08:47:41;;;;;;;11.98;4.85;;;19.30;99.90;;;;;;5082366;28;20051;-65
2022/06/21 08:50:19;;;;;;;10.60;4.22;;;;;;;;;;5072174;28;20523;-63
2022/06/21 08:53:18;;;;;;;12.38;4.25;;;19.90;99.90;;;;;;5084114;28;20110;-64
2022/06/21 08:55:50;;;;;;;7.78;3.30;;;20.10;99.90;;;;;;5073207;28;20032;-64
2022/06/21 08:58:49;;;;;;;10.13;3.50;;;20.30;99.90;;;;;;5075934;28;20025;-64
2022/06/21 09:01:47;;;;;;;7.07;3.20;;;20.20;99.90;;;;;;5080569;28;20080;-64
2022/06/21 09:04:29;;;;;;;9.70;3.25;;;20.40;99.90;;;;;;5065365;28;20035;-64
2022/06/21 09:07:27;;;;;;;7.77;3.00;;;19.80;99.90;;;;;;5079223;28;20028;-64
2022/06/21 09:09:53;;;;;;;7.80;3.40;;;19.40;99.90;;;;;;5075236;28;20036;-64
2022/06/21 09:12:55;;;;;;;5.90;2.92;;;20.00;99.90;;;;;;5085622;28;20032;-65
2022/06/21 09:15:49;;;;;;;7.25;2.80;;;19.30;99.90;;;;;;5074824;28;20032;-64
2022/06/21 09:18:31;;;;;;;8.43;2.80;;;19.80;99.90;;;;;;5072451;28;20509;-64
2022/06/21 09:20:56;;;;;;;6.90;3.00;;;19.70;99.90;;;;;;5077189;28;20020;-63
2022/06/21 09:23:41;;;;;;;7.13;2.60;;;19.50;99.90;;;;;;5071312;28;20106;-64
2022/06/21 09:26:38;;;;;;;7.63;2.63;;;19.70;99.90;;;;;;5078266;28;20146;-63
2022/06/21 09:29:15;;;;;;;9.45;2.38;;;19.60;99.90;;;;;;5081969;28;20117;-65
2022/06/21 09:32:10;;;;;;;10.50;3.15;;;19.70;99.90;;;;;;5081252;28;20020;-65
2022/06/21 09:34:59;;;;;;;5.35;2.67;;;20.20;99.90;;;;;;5080400;28;20027;-64
2022/06/21 09:37:44;;;;;;;7.93;2.70;;;20.50;99.90;;;;;;5080997;28;20073;-63
2022/06/21 09:40:22;;;;;;;7.07;2.55;;;20.60;99.90;;;;;;5074384;28;20483;-66
2022/06/21 09:43:16;;;;;;;6.32;2.53;;;20.80;99.90;;;;;;5071276;28;20055;-63
2022/06/21 09:45:42;;;;;;;8.10;3.10;;;20.80;99.90;;;;;;5061372;28;20039;-64
2022/06/21 09:48:45;;;;;;;6.65;2.78;;;20.70;99.90;;;;;;5080680;28;20012;-63
2022/06/21 09:51:24;;;;;;;5.68;2.55;;;20.30;99.90;;;;;;5072640;28;20443;-64
2022/06/21 09:54:15;;;;;;;7.35;2.13;;;20.30;99.90;;;;;;5083304;28;20016;-65
2022/06/21 09:56:59;;;;;;;4.82;1.60;;;20.30;99.90;;;;;;5077531;28;20019;-65
2022/06/21 09:59:43;;;;;;;3.63;1.70;;;20.40;99.90;;;;;;5075298;28;20172;-64
2022/06/21 10:02:24;;;;;;;4.20;1.88;;;20.60;99.90;;;;;;5077902;28;20019;-65
2022/06/21 10:05:04;;;;;;;4.88;1.88;;;20.60;99.90;;;;;;5076376;28;20032;-66
2022/06/21 10:07:46;;;;;;;4.85;1.88;;;20.70;99.90;;;;;;5080247;28;20028;-65
2022/06/21 10:10:35;;;;;;;4.78;1.80;;;21.20;99.90;;;;;;5082786;28;20093;-65
2022/06/21 10:13:32;;;;;;;5.63;1.83;;;21.20;99.90;;;;;;5077686;28;20024;-63
2022/06/21 10:16:14;;;;;;;4.65;1.70;;;21.50;99.90;;;;;;5081286;28;20380;-64
2022/06/21 10:19:02;;;;;;;7.60;2.47;;;21.20;99.90;;;;;;5079520;28;20070;-64
2022/06/21 10:21:46;;;;;;;8.20;2.60;;;21.10;99.90;;;;;;5083701;28;20024;-64
2022/06/21 10:24:14;;;;;;;10.23;2.63;;;20.90;99.90;;;;;;5081032;28;20024;-65
2022/06/21 10:27:24;;;;;;;6.32;1.85;;;20.90;99.90;;;;;;5087355;28;20020;-63
2022/06/21 10:30:05;;;;;;;3.22;1.75;;;21.40;99.90;;;;;;5081004;28;20514;-64
2022/06/21 10:32:56;;;;;;;7.32;2.15;;;21.80;99.90;;;;;;5079827;28;20491;-64
2022/06/21 10:36:00;;;;;;;4.80;2.10;;;21.90;99.90;;;;;;5077527;28;20100;-64
2022/06/21 10:38:55;;;;;;;6.30;2.00;;;21.90;99.90;;;;;;5079261;28;20020;-65
2022/06/21 10:44:59;;;;;;;6.40;2.13;;;22.00;99.90;;;;;;5086300;28;20036;-64
2022/06/21 10:48:09;;;;;;;4.82;2.15;;;22.00;99.90;;;;;;5086371;28;20530;-63
2022/06/21 10:51:05;;;;;;;7.50;2.67;;;21.10;99.90;;;;;;5063354;28;20302;-64
2022/06/21 10:54:08;;;;;;;4.38;1.77;;;20.90;99.90;;;;;;5080720;28;20533;-64
2022/06/21 10:57:14;;;;;;;3.03;1.70;;;21.40;99.90;;;;;;5072575;28;20036;-64
2022/06/21 11:02:52;;;;;;;4.72;1.90;;;21.30;99.90;;;;;;5084500;28;20059;-63
2022/06/21 11:05:35;;;;;;;6.35;1.85;;;21.10;99.90;;;;;;5073493;28;20012;-63
2022/06/21 11:08:23;;;;;;;4.72;2.08;;;21.50;99.90;;;;;;5083809;28;20035;-64
2022/06/21 11:10:57;;;;;;;6.28;2.08;;;22.00;99.90;;;;;;5074087;28;20056;-65
2022/06/21 11:13:38;;;;;;;4.28;1.67;;;22.50;99.90;;;;;;5082881;28;20531;-64
2022/06/21 11:16:37;;;;;;;7.65;2.17;;;22.40;99.90;;;;;;5086173;28;20052;-63
2022/06/21 11:19:15;;;;;;;4.57;1.52;;;22.60;99.90;;;;;;5080178;28;20028;-66
2022/06/21 11:22:12;;;;;;;4.78;1.70;;;22.20;99.90;;;;;;5077399;28;20017;-65
2022/06/21 11:24:46;;;;;;;4.35;1.70;;;22.30;99.90;;;;;;5088057;28;20028;-64
2022/06/21 11:27:16;;;;;;;5.80;1.60;;;22.20;99.90;;;;;;5084268;28;20035;-65
2022/06/21 11:30:03;;;;;;;3.45;1.48;;;21.60;99.90;;;;;;5077565;28;20228;-66
2022/06/21 11:32:45;;;;;;;5.53;2.00;;;21.70;99.90;;;;;;5082508;28;20023;-65
2022/06/21 11:35:42;;;;;;;5.28;1.75;;;22.00;99.90;;;;;;5071929;28;20028;-65
2022/06/21 11:38:25;;;;;;;5.13;1.88;;;22.30;99.90;;;;;;5082358;28;20487;-64
2022/06/21 11:42:04;;;;;;;5.53;2.05;;;22.10;99.90;;;;;;5082871;28;20016;-64
2022/06/21 11:44:14;;;;;;;3.70;1.70;;;22.30;99.90;;;;;;5085442;28;20028;-64
2022/06/21 11:46:56;;;;;;;2.95;1.55;;;22.20;99.90;;;;;;5077245;28;20082;-64
2022/06/21 11:49:36;;;;;;;3.67;1.70;;;22.00;99.90;;;;;;5079225;28;20408;-65
2022/06/21 11:52:22;;;;;;;4.18;1.83;;;21.90;99.90;;;;;;5081607;28;20048;-65
2022/06/21 11:55:15;;;;;;;8.63;2.25;;;21.30;99.90;;;;;;5075152;28;20709;-65
2022/06/21 11:58:13;;;;;;;7.43;2.72;;;21.40;99.90;;;;;;5064328;28;20115;-66
2022/06/21 12:00:52;;;;;;;4.60;1.48;;;;;;;;;;5072858;28;20119;-65
2022/06/21 12:03:59;;;;;;;4.40;1.77;;;21.90;99.90;;;;;;5080754;28;20077;-66
2022/06/21 12:06:48;;;;;;;4.15;1.58;;;22.40;99.90;;;;;;5079613;28;20035;-66
2022/06/21 12:09:41;;;;;;;3.33;1.67;;;22.10;99.90;;;;;;5073111;28;20112;-66
2022/06/21 12:12:36;;;;;;;5.57;1.75;;;22.40;99.90;;;;;;5076419;28;20131;-66
2022/06/21 12:15:26;;;;;;;6.93;1.90;;;22.40;99.90;;;;;;5074967;28;20032;-65
2022/06/21 12:17:59;;;;;;;6.45;1.90;;;22.40;99.90;;;;;;5077304;28;20074;-65
2022/06/21 12:20:40;;;;;;;4.95;1.98;;;21.80;99.90;;;;;;5076433;28;20028;-65
2022/06/21 12:23:14;;;;;;;18.35;2.72;;;22.40;99.90;;;;;;5078043;28;20035;-65
2022/06/21 12:25:40;;;;;;;5.85;2.15;;;22.70;99.90;;;;;;5082698;28;20024;-66
2022/06/21 12:28:18;;;;;;;3.90;1.70;;;22.90;99.90;;;;;;5079431;28;20032;-65
2022/06/21 12:30:44;;;;;;;5.05;2.08;;;22.50;99.90;;;;;;5079393;28;20028;-65
2022/06/21 12:33:13;;;;;;;7.45;2.63;;;22.60;99.90;;;;;;5075451;28;20106;-65
2022/06/21 12:35:49;;;;;;;5.75;2.00;;;22.50;99.90;;;;;;5079738;28;20519;-65
2022/06/21 12:38:20;;;;;;;5.15;2.03;;;21.90;99.90;;;;;;5072985;28;20031;-65
2022/06/21 12:40:50;;;;;;;6.95;1.95;;;22.20;99.90;;;;;;5088485;28;20021;-64
2022/06/21 12:43:46;;;;;;;6.70;1.65;;;22.20;99.90;;;;;;5080970;28;20024;-65
2022/06/21 12:46:30;;;;;;;6.80;1.83;;;22.00;99.90;;;;;;5078074;28;20483;-66
2022/06/21 12:49:33;;;;;;;5.55;2.08;;;22.00;99.90;;;;;;5081284;28;20374;-65
2022/06/21 12:52:05;;;;;;;7.50;1.90;;;22.60;99.90;;;;;;5080246;28;20027;-66
2022/06/21 12:55:13;;;;;;;7.85;1.90;;;22.60;99.90;;;;;;5080441;28;20051;-64
2022/06/21 12:57:38;;;;;;;5.03;1.83;;;22.40;99.90;;;;;;5078532;28;20564;-66
2022/06/21 13:00:15;;;;;;;7.15;2.20;;;22.20;99.90;;;;;;5089192;28;20114;-66
2022/06/21 13:03:02;;;;;;;6.30;2.08;;;22.50;99.90;;;;;;5084753;28;20548;-65
2022/06/21 13:05:36;;;;;;;5.07;1.90;;;22.30;99.90;;;;;;5075620;28;20027;-66
2022/06/21 13:08:24;;;;;;;6.30;2.38;;;22.60;99.90;;;;;;5083482;28;20024;-65
2022/06/21 13:11:15;;;;;;;7.00;1.92;;;22.10;99.90;;;;;;5074862;28;20037;-65
2022/06/21 13:13:43;;;;;;;4.18;1.65;;;22.70;99.90;;;;;;5076283;28;20028;-65
2022/06/21 13:16:43;;;;;;;5.82;1.70;;;23.00;99.90;;;;;;5080645;28;20097;-65
2022/06/21 13:19:35;;;;;;;4.55;1.83;;;22.50;99.90;;;;;;5072343;28;20031;-66
2022/06/21 13:22:08;;;;;;;5.97;2.20;;;22.50;99.90;;;;;;5070319;28;20048;-65
2022/06/21 13:25:00;;;;;;;5.60;2.20;;;22.50;99.90;;;;;;5082821;28;20020;-64
2022/06/21 13:27:54;;;;;;;5.13;1.70;;;22.20;99.90;;;;;;5075736;28;20023;-65
2022/06/21 13:30:54;;;;;;;4.07;1.83;;;22.40;99.90;;;;;;5078795;28;20525;-65
2022/06/21 13:33:46;;;;;;;6.15;2.30;;;22.50;99.90;;;;;;5077249;28;20079;-66
2022/06/21 13:36:20;;;;;;;6.80;2.08;;;22.80;99.90;;;;;;5082549;28;20059;-64
2022/06/21 13:38:55;;;;;;;4.90;2.13;;;22.80;99.90;;;;;;5074758;28;20531;-65
2022/06/21 13:44:23;;;;;;;3.83;1.90;;;22.60;99.90;;;;;;5074939;28;20298;-66
2022/06/21 13:47:00;;;;;;;5.07;2.08;;;22.40;99.90;;;;;;5081549;28;20027;-65
2022/06/21 13:49:35;;;;;;;6.63;2.15;;;22.70;99.90;;;;;;5082602;28;20016;-65
2022/06/21 13:52:28;;;;;;;5.97;1.95;;;23.00;99.90;;;;;;5071880;28;20077;-65
2022/06/21 13:55:23;;;;;;;6.50;2.20;;;23.20;99.90;;;;;;5084354;28;20462;-65
2022/06/21 13:58:01;;;;;;;7.50;1.98;;;22.90;99.90;;;;;;5077993;28;20095;-65
2022/06/21 14:00:35;;;;;;;6.53;1.90;;;23.10;99.90;;;;;;5072288;28;20502;-66
2022/06/21 14:03:24;;;;;;;5.90;1.60;;;23.20;99.90;;;;;;5088535;28;20045;-66
2022/06/21 14:06:07;;;;;;;7.72;1.70;;;23.50;99.90;;;;;;5073991;28;20031;-65
2022/06/21 14:08:42;;;;;;;6.80;2.20;;;23.60;99.90;;;;;;5087601;28;20028;-65
2022/06/21 14:11:46;;;;;;;6.75;2.22;;;23.40;99.90;;;;;;5082624;28;20028;-65
2022/06/21 14:14:31;;;;;;;6.25;2.67;;;22.90;99.90;;;;;;5070546;28;20036;-65
2022/06/21 14:17:12;;;;;;;7.75;2.15;;;23.20;99.90;;;;;;5078946;28;20030;-66
2022/06/21 14:19:57;;;;;;;8.32;2.13;;;23.30;99.90;;;;;;5081496;28;20488;-66
2022/06/21 14:22:31;;;;;;;5.30;2.10;;;23.50;99.90;;;;;;5101371;27;20031;-66
2022/06/21 14:25:07;;;;;;;7.93;2.30;;;23.10;99.90;;;;;;5082752;28;20032;-67